sensor_id;sensor_type;location;lat;lon;timestamp;P1;durP1;ratioP1;P2;durP2;ratioP2
22040;SDS011;11184;52.444;13.578;2022-09-09T00:00:21;12.38;;;11.25;;
22040;SDS011;11184;52.444;13.578;2022-09-09T00:03:10;13.07;;;11.77;;
22040;SDS011;11184;52.444;13.578;2022-09-09T00:06:05;15.27;;;13.13;;
22040;SDS011;11184;52.444;13.578;2022-09-09T00:09:12;14.63;;;12.63;;
22040;SDS011;11184;52.444;13.578;2022-09-09T00:12:04;12.70;;;11.70;;
22040;SDS011;11184;52.444;13.578;2022-09-09T00:15:05;11.77;;;10.68;;
22040;SDS011;11184;52.444;13.578;2022-09-09T00:18:01;12.30;;;11.13;;
22040;SDS011;11184;52.444;13.578;2022-09-09T00:20:50;12.13;;;10.95;;
22040;SDS011;11184;52.444;13.578;2022-09-09T00:23:39;11.95;;;10.73;;
22040;SDS011;11184;52.444;13.578;2022-09-09T00:26:32;14.57;;;11.35;;
22040;SDS011;11184;52.444;13.578;2022-09-09T00:29:28;12.98;;;11.77;;
22040;SDS011;11184;52.444;13.578;2022-09-09T00:32:17;12.70;;;11.55;;
22040;SDS011;11184;52.444;13.578;2022-09-09T00:35:04;9.98;;;8.98;;
22040;SDS011;11184;52.444;13.578;2022-09-09T00:37:58;12.15;;;10.95;;
22040;SDS011;11184;52.444;13.578;2022-09-09T00:55:28;10.95;;;9.68;;
22040;SDS011;11184;52.444;13.578;2022-09-09T00:58:18;8.98;;;8.27;;
22040;SDS011;11184;52.444;13.578;2022-09-09T01:01:04;11.40;;;9.15;;
22040;SDS011;11184;52.444;13.578;2022-09-09T01:03:54;13.15;;;11.63;;
22040;SDS011;11184;52.444;13.578;2022-09-09T01:06:39;11.15;;;10.13;;
22040;SDS011;11184;52.444;13.578;2022-09-09T01:15:10;12.43;;;11.13;;
22040;SDS011;11184;52.444;13.578;2022-09-09T01:18:08;12.75;;;9.93;;
22040;SDS011;11184;52.444;13.578;2022-09-09T01:26:46;11.15;;;10.05;;
22040;SDS011;11184;52.444;13.578;2022-09-09T01:29:31;10.52;;;9.48;;
22040;SDS011;11184;52.444;13.578;2022-09-09T01:35:31;12.85;;;11.52;;
22040;SDS011;11184;52.444;13.578;2022-09-09T01:38:17;10.93;;;9.82;;
22040;SDS011;11184;52.444;13.578;2022-09-09T01:41:02;11.65;;;9.55;;
22040;SDS011;11184;52.444;13.578;2022-09-09T01:43:47;12.57;;;9.82;;
22040;SDS011;11184;52.444;13.578;2022-09-09T01:46:32;10.48;;;9.60;;
22040;SDS011;11184;52.444;13.578;2022-09-09T01:49:18;10.88;;;9.82;;
22040;SDS011;11184;52.444;13.578;2022-09-09T01:52:02;11.50;;;8.85;;
22040;SDS011;11184;52.444;13.578;2022-09-09T01:54:47;9.48;;;8.35;;
22040;SDS011;11184;52.444;13.578;2022-09-09T02:00:36;11.60;;;10.50;;
22040;SDS011;11184;52.444;13.578;2022-09-09T02:03:25;12.80;;;10.05;;
22040;SDS011;11184;52.444;13.578;2022-09-09T02:06:18;9.27;;;8.57;;
22040;SDS011;11184;52.444;13.578;2022-09-09T02:09:07;10.73;;;9.68;;
22040;SDS011;11184;52.444;13.578;2022-09-09T02:11:55;9.77;;;8.88;;
22040;SDS011;11184;52.444;13.578;2022-09-09T02:14:44;11.30;;;9.57;;
22040;SDS011;11184;52.444;13.578;2022-09-09T02:17:32;11.13;;;9.80;;
22040;SDS011;11184;52.444;13.578;2022-09-09T02:20:17;12.18;;;10.98;;
22040;SDS011;11184;52.444;13.578;2022-09-09T02:23:02;10.80;;;9.85;;
22040;SDS011;11184;52.444;13.578;2022-09-09T02:25:48;12.32;;;11.05;;
22040;SDS011;11184;52.444;13.578;2022-09-09T02:28:35;12.68;;;11.48;;
22040;SDS011;11184;52.444;13.578;2022-09-09T02:31:21;11.65;;;10.55;;
22040;SDS011;11184;52.444;13.578;2022-09-09T02:34:07;12.88;;;11.43;;
22040;SDS011;11184;52.444;13.578;2022-09-09T02:36:54;18.58;;;11.55;;
22040;SDS011;11184;52.444;13.578;2022-09-09T02:39:39;12.25;;;11.02;;
22040;SDS011;11184;52.444;13.578;2022-09-09T02:42:24;14.27;;;11.85;;
22040;SDS011;11184;52.444;13.578;2022-09-09T02:45:09;13.82;;;12.35;;
22040;SDS011;11184;52.444;13.578;2022-09-09T02:50:49;13.93;;;12.13;;
22040;SDS011;11184;52.444;13.578;2022-09-09T02:53:43;13.45;;;12.05;;
22040;SDS011;11184;52.444;13.578;2022-09-09T02:56:29;13.52;;;10.88;;
22040;SDS011;11184;52.444;13.578;2022-09-09T02:59:17;13.13;;;11.13;;
22040;SDS011;11184;52.444;13.578;2022-09-09T03:02:02;13.90;;;11.10;;
22040;SDS011;11184;52.444;13.578;2022-09-09T03:04:47;15.88;;;11.70;;
22040;SDS011;11184;52.444;13.578;2022-09-09T03:07:35;12.52;;;11.23;;
22040;SDS011;11184;52.444;13.578;2022-09-09T03:10:20;15.23;;;11.80;;
22040;SDS011;11184;52.444;13.578;2022-09-09T03:13:04;14.68;;;12.82;;
22040;SDS011;11184;52.444;13.578;2022-09-09T03:15:49;16.15;;;12.95;;
22040;SDS011;11184;52.444;13.578;2022-09-09T03:18:35;12.15;;;10.93;;
22040;SDS011;11184;52.444;13.578;2022-09-09T03:21:20;12.65;;;11.43;;
22040;SDS011;11184;52.444;13.578;2022-09-09T03:24:04;13.88;;;11.90;;
22040;SDS011;11184;52.444;13.578;2022-09-09T03:26:49;16.95;;;13.05;;
22040;SDS011;11184;52.444;13.578;2022-09-09T03:29:34;13.82;;;10.80;;
22040;SDS011;11184;52.444;13.578;2022-09-09T03:32:19;11.38;;;10.23;;
22040;SDS011;11184;52.444;13.578;2022-09-09T03:35:05;12.43;;;11.18;;
22040;SDS011;11184;52.444;13.578;2022-09-09T03:37:50;11.55;;;10.45;;
22040;SDS011;11184;52.444;13.578;2022-09-09T03:40:35;11.40;;;10.20;;
22040;SDS011;11184;52.444;13.578;2022-09-09T03:43:19;11.32;;;10.23;;
22040;SDS011;11184;52.444;13.578;2022-09-09T03:46:04;11.77;;;10.57;;
22040;SDS011;11184;52.444;13.578;2022-09-09T03:48:49;12.18;;;10.45;;
22040;SDS011;11184;52.444;13.578;2022-09-09T03:51:34;11.55;;;10.43;;
22040;SDS011;11184;52.444;13.578;2022-09-09T03:54:19;11.80;;;10.10;;
22040;SDS011;11184;52.444;13.578;2022-09-09T03:57:05;12.23;;;10.98;;
22040;SDS011;11184;52.444;13.578;2022-09-09T03:59:49;10.82;;;9.73;;
22040;SDS011;11184;52.444;13.578;2022-09-09T04:02:34;9.57;;;8.77;;
22040;SDS011;11184;52.444;13.578;2022-09-09T04:05:18;10.60;;;9.40;;
22040;SDS011;11184;52.444;13.578;2022-09-09T04:08:03;11.55;;;10.45;;
22040;SDS011;11184;52.444;13.578;2022-09-09T04:10:48;11.45;;;10.43;;
22040;SDS011;11184;52.444;13.578;2022-09-09T04:13:34;10.60;;;9.52;;
22040;SDS011;11184;52.444;13.578;2022-09-09T04:16:19;11.70;;;10.70;;
22040;SDS011;11184;52.444;13.578;2022-09-09T04:19:03;12.35;;;11.15;;
22040;SDS011;11184;52.444;13.578;2022-09-09T04:21:50;10.25;;;9.25;;
22040;SDS011;11184;52.444;13.578;2022-09-09T04:24:35;10.63;;;9.70;;
22040;SDS011;11184;52.444;13.578;2022-09-09T04:27:20;10.88;;;9.60;;
22040;SDS011;11184;52.444;13.578;2022-09-09T04:30:05;11.88;;;10.05;;
22040;SDS011;11184;52.444;13.578;2022-09-09T04:32:50;11.95;;;10.90;;
22040;SDS011;11184;52.444;13.578;2022-09-09T04:35:35;11.63;;;10.55;;
22040;SDS011;11184;52.444;13.578;2022-09-09T04:38:20;11.57;;;9.93;;
22040;SDS011;11184;52.444;13.578;2022-09-09T04:41:06;11.65;;;10.50;;
22040;SDS011;11184;52.444;13.578;2022-09-09T04:43:51;12.30;;;9.95;;
22040;SDS011;11184;52.444;13.578;2022-09-09T04:46:37;16.15;;;11.32;;
22040;SDS011;11184;52.444;13.578;2022-09-09T04:49:21;11.98;;;10.07;;
22040;SDS011;11184;52.444;13.578;2022-09-09T04:52:06;11.38;;;10.27;;
22040;SDS011;11184;52.444;13.578;2022-09-09T04:54:51;10.38;;;9.43;;
22040;SDS011;11184;52.444;13.578;2022-09-09T04:57:37;11.60;;;10.52;;
22040;SDS011;11184;52.444;13.578;2022-09-09T05:00:22;13.13;;;11.00;;
22040;SDS011;11184;52.444;13.578;2022-09-09T05:03:06;11.43;;;10.27;;
22040;SDS011;11184;52.444;13.578;2022-09-09T05:05:52;15.15;;;9.45;;
22040;SDS011;11184;52.444;13.578;2022-09-09T05:08:37;10.95;;;9.85;;
22040;SDS011;11184;52.444;13.578;2022-09-09T05:11:25;10.95;;;9.93;;
22040;SDS011;11184;52.444;13.578;2022-09-09T05:14:10;13.38;;;8.50;;
22040;SDS011;11184;52.444;13.578;2022-09-09T05:16:55;11.93;;;9.63;;
22040;SDS011;11184;52.444;13.578;2022-09-09T05:19:41;15.93;;;9.57;;
22040;SDS011;11184;52.444;13.578;2022-09-09T05:22:26;10.60;;;9.77;;
22040;SDS011;11184;52.444;13.578;2022-09-09T05:25:11;12.88;;;10.27;;
22040;SDS011;11184;52.444;13.578;2022-09-09T05:27:55;9.60;;;8.68;;
22040;SDS011;11184;52.444;13.578;2022-09-09T05:30:40;10.00;;;9.07;;
22040;SDS011;11184;52.444;13.578;2022-09-09T05:33:24;10.93;;;8.50;;
22040;SDS011;11184;52.444;13.578;2022-09-09T05:36:11;8.68;;;7.80;;
22040;SDS011;11184;52.444;13.578;2022-09-09T05:38:57;10.00;;;8.23;;
22040;SDS011;11184;52.444;13.578;2022-09-09T05:41:41;9.73;;;6.95;;
22040;SDS011;11184;52.444;13.578;2022-09-09T05:44:26;8.65;;;7.85;;
22040;SDS011;11184;52.444;13.578;2022-09-09T05:47:11;13.35;;;8.10;;
22040;SDS011;11184;52.444;13.578;2022-09-09T05:49:56;11.40;;;7.45;;
22040;SDS011;11184;52.444;13.578;2022-09-09T05:52:40;10.13;;;7.43;;
22040;SDS011;11184;52.444;13.578;2022-09-09T05:55:25;8.13;;;6.50;;
22040;SDS011;11184;52.444;13.578;2022-09-09T05:58:09;7.78;;;7.03;;
22040;SDS011;11184;52.444;13.578;2022-09-09T06:00:59;8.45;;;7.63;;
22040;SDS011;11184;52.444;13.578;2022-09-09T06:03:46;7.60;;;6.90;;
22040;SDS011;11184;52.444;13.578;2022-09-09T06:06:31;6.43;;;5.82;;
22040;SDS011;11184;52.444;13.578;2022-09-09T06:09:20;12.63;;;8.07;;
22040;SDS011;11184;52.444;13.578;2022-09-09T06:12:05;8.50;;;5.93;;
22040;SDS011;11184;52.444;13.578;2022-09-09T06:14:50;9.93;;;6.32;;
22040;SDS011;11184;52.444;13.578;2022-09-09T06:17:35;10.18;;;5.18;;
22040;SDS011;11184;52.444;13.578;2022-09-09T06:20:20;8.68;;;6.05;;
22040;SDS011;11184;52.444;13.578;2022-09-09T06:23:05;5.88;;;5.38;;
22040;SDS011;11184;52.444;13.578;2022-09-09T06:25:50;5.97;;;5.43;;
22040;SDS011;11184;52.444;13.578;2022-09-09T06:28:34;8.98;;;4.80;;
22040;SDS011;11184;52.444;13.578;2022-09-09T06:31:23;8.10;;;4.03;;
22040;SDS011;11184;52.444;13.578;2022-09-09T06:34:08;5.32;;;4.65;;
22040;SDS011;11184;52.444;13.578;2022-09-09T06:36:53;4.35;;;3.95;;
22040;SDS011;11184;52.444;13.578;2022-09-09T06:39:38;7.72;;;4.70;;
22040;SDS011;11184;52.444;13.578;2022-09-09T06:42:23;4.88;;;3.83;;
22040;SDS011;11184;52.444;13.578;2022-09-09T06:45:07;5.75;;;3.88;;
22040;SDS011;11184;52.444;13.578;2022-09-09T06:47:54;8.73;;;3.50;;
22040;SDS011;11184;52.444;13.578;2022-09-09T06:50:39;9.77;;;3.60;;
22040;SDS011;11184;52.444;13.578;2022-09-09T06:53:24;5.45;;;3.65;;
22040;SDS011;11184;52.444;13.578;2022-09-09T06:58:55;4.63;;;3.55;;
22040;SDS011;11184;52.444;13.578;2022-09-09T07:01:42;5.68;;;3.08;;
22040;SDS011;11184;52.444;13.578;2022-09-09T07:04:27;5.80;;;2.83;;
22040;SDS011;11184;52.444;13.578;2022-09-09T07:07:12;6.72;;;2.63;;
22040;SDS011;11184;52.444;13.578;2022-09-09T07:09:58;8.10;;;2.88;;
22040;SDS011;11184;52.444;13.578;2022-09-09T07:12:43;8.30;;;2.50;;
22040;SDS011;11184;52.444;13.578;2022-09-09T07:15:27;9.35;;;2.00;;
22040;SDS011;11184;52.444;13.578;2022-09-09T07:18:12;4.32;;;1.95;;
22040;SDS011;11184;52.444;13.578;2022-09-09T07:20:56;2.50;;;2.00;;
22040;SDS011;11184;52.444;13.578;2022-09-09T07:23:41;3.55;;;1.60;;
22040;SDS011;11184;52.444;13.578;2022-09-09T07:26:27;5.05;;;2.10;;
22040;SDS011;11184;52.444;13.578;2022-09-09T07:29:12;5.82;;;2.63;;
22040;SDS011;11184;52.444;13.578;2022-09-09T07:31:57;5.43;;;2.00;;
22040;SDS011;11184;52.444;13.578;2022-09-09T07:34:42;5.28;;;2.30;;
22040;SDS011;11184;52.444;13.578;2022-09-09T07:37:27;4.07;;;1.80;;
22040;SDS011;11184;52.444;13.578;2022-09-09T07:40:11;4.55;;;3.38;;
22040;SDS011;11184;52.444;13.578;2022-09-09T07:42:56;5.78;;;3.15;;
22040;SDS011;11184;52.444;13.578;2022-09-09T07:45:41;3.65;;;2.03;;
22040;SDS011;11184;52.444;13.578;2022-09-09T07:48:25;4.32;;;2.28;;
22040;SDS011;11184;52.444;13.578;2022-09-09T07:51:12;4.53;;;1.80;;
22040;SDS011;11184;52.444;13.578;2022-09-09T07:54:01;10.88;;;1.90;;
22040;SDS011;11184;52.444;13.578;2022-09-09T07:56:46;3.35;;;1.40;;
22040;SDS011;11184;52.444;13.578;2022-09-09T07:59:33;4.20;;;2.65;;
22040;SDS011;11184;52.444;13.578;2022-09-09T08:02:17;4.32;;;2.30;;
22040;SDS011;11184;52.444;13.578;2022-09-09T08:05:02;3.17;;;2.20;;
22040;SDS011;11184;52.444;13.578;2022-09-09T08:07:47;5.47;;;2.08;;
22040;SDS011;11184;52.444;13.578;2022-09-09T08:10:33;3.92;;;1.73;;
22040;SDS011;11184;52.444;13.578;2022-09-09T08:13:17;4.68;;;2.15;;
22040;SDS011;11184;52.444;13.578;2022-09-09T08:16:06;4.68;;;2.00;;
22040;SDS011;11184;52.444;13.578;2022-09-09T08:18:51;7.25;;;1.60;;
22040;SDS011;11184;52.444;13.578;2022-09-09T08:21:38;5.10;;;1.88;;
22040;SDS011;11184;52.444;13.578;2022-09-09T08:24:23;2.47;;;1.42;;
22040;SDS011;11184;52.444;13.578;2022-09-09T08:27:08;2.85;;;1.25;;
22040;SDS011;11184;52.444;13.578;2022-09-09T08:29:53;10.05;;;1.70;;
22040;SDS011;11184;52.444;13.578;2022-09-09T08:32:39;7.18;;;1.65;;
22040;SDS011;11184;52.444;13.578;2022-09-09T08:35:24;4.43;;;1.35;;
22040;SDS011;11184;52.444;13.578;2022-09-09T08:38:08;3.10;;;1.20;;
22040;SDS011;11184;52.444;13.578;2022-09-09T08:40:53;2.38;;;1.35;;
22040;SDS011;11184;52.444;13.578;2022-09-09T08:43:43;4.53;;;1.23;;
22040;SDS011;11184;52.444;13.578;2022-09-09T08:49:32;3.08;;;1.77;;
22040;SDS011;11184;52.444;13.578;2022-09-09T08:52:23;5.70;;;1.85;;
22040;SDS011;11184;52.444;13.578;2022-09-09T08:55:21;4.85;;;1.33;;
22040;SDS011;11184;52.444;13.578;2022-09-09T08:58:11;4.93;;;1.30;;
22040;SDS011;11184;52.444;13.578;2022-09-09T09:06:39;2.47;;;1.30;;
22040;SDS011;11184;52.444;13.578;2022-09-09T09:12:39;2.38;;;1.08;;
22040;SDS011;11184;52.444;13.578;2022-09-09T09:15:27;4.15;;;1.02;;
22040;SDS011;11184;52.444;13.578;2022-09-09T09:18:14;3.20;;;0.77;;
22040;SDS011;11184;52.444;13.578;2022-09-09T09:23:58;2.58;;;1.35;;
22040;SDS011;11184;52.444;13.578;2022-09-09T09:26:43;3.72;;;0.90;;
22040;SDS011;11184;52.444;13.578;2022-09-09T09:29:28;3.95;;;0.95;;
22040;SDS011;11184;52.444;13.578;2022-09-09T09:32:14;1.42;;;0.90;;
22040;SDS011;11184;52.444;13.578;2022-09-09T09:35:00;5.43;;;1.33;;
22040;SDS011;11184;52.444;13.578;2022-09-09T09:37:47;4.65;;;0.90;;
22040;SDS011;11184;52.444;13.578;2022-09-09T09:40:32;4.60;;;1.05;;
22040;SDS011;11184;52.444;13.578;2022-09-09T09:43:21;2.47;;;1.02;;
22040;SDS011;11184;52.444;13.578;2022-09-09T09:46:27;5.25;;;1.33;;
22040;SDS011;11184;52.444;13.578;2022-09-09T09:49:12;6.50;;;1.13;;
22040;SDS011;11184;52.444;13.578;2022-09-09T09:51:59;2.08;;;1.25;;
22040;SDS011;11184;52.444;13.578;2022-09-09T09:54:45;1.83;;;0.85;;
22040;SDS011;11184;52.444;13.578;2022-09-09T09:57:30;3.85;;;1.25;;
22040;SDS011;11184;52.444;13.578;2022-09-09T10:00:16;4.97;;;0.90;;
22040;SDS011;11184;52.444;13.578;2022-09-09T10:03:02;14.85;;;11.30;;
22040;SDS011;11184;52.444;13.578;2022-09-09T10:05:57;3.67;;;1.45;;
22040;SDS011;11184;52.444;13.578;2022-09-09T10:08:45;1.38;;;0.70;;
22040;SDS011;11184;52.444;13.578;2022-09-09T10:14:49;3.85;;;1.40;;
22040;SDS011;11184;52.444;13.578;2022-09-09T10:20:58;3.95;;;1.40;;
22040;SDS011;11184;52.444;13.578;2022-09-09T10:23:51;3.03;;;1.00;;
22040;SDS011;11184;52.444;13.578;2022-09-09T10:26:46;1.70;;;0.93;;
22040;SDS011;11184;52.444;13.578;2022-09-09T10:35:42;6.85;;;1.50;;
22040;SDS011;11184;52.444;13.578;2022-09-09T10:41:18;5.15;;;0.98;;
22040;SDS011;11184;52.444;13.578;2022-09-09T10:44:13;3.92;;;1.10;;
22040;SDS011;11184;52.444;13.578;2022-09-09T10:53:01;2.10;;;1.00;;
22040;SDS011;11184;52.444;13.578;2022-09-09T10:55:57;2.72;;;1.10;;
22040;SDS011;11184;52.444;13.578;2022-09-09T11:04:21;2.53;;;1.02;;
22040;SDS011;11184;52.444;13.578;2022-09-09T11:07:07;8.50;;;5.60;;
22040;SDS011;11184;52.444;13.578;2022-09-09T11:09:53;3.30;;;1.33;;
22040;SDS011;11184;52.444;13.578;2022-09-09T11:12:39;3.03;;;0.80;;
22040;SDS011;11184;52.444;13.578;2022-09-09T11:15:26;2.67;;;1.17;;
22040;SDS011;11184;52.444;13.578;2022-09-09T11:18:18;4.68;;;1.50;;
22040;SDS011;11184;52.444;13.578;2022-09-09T11:21:03;7.43;;;1.23;;
22040;SDS011;11184;52.444;13.578;2022-09-09T11:23:56;3.22;;;0.52;;
22040;SDS011;11184;52.444;13.578;2022-09-09T11:26:44;1.92;;;0.75;;
22040;SDS011;11184;52.444;13.578;2022-09-09T11:29:43;2.33;;;0.90;;
22040;SDS011;11184;52.444;13.578;2022-09-09T11:32:39;1.65;;;0.60;;
22040;SDS011;11184;52.444;13.578;2022-09-09T11:38:33;3.15;;;0.85;;
22040;SDS011;11184;52.444;13.578;2022-09-09T11:41:22;2.33;;;0.82;;
22040;SDS011;11184;52.444;13.578;2022-09-09T11:44:11;2.25;;;1.00;;
22040;SDS011;11184;52.444;13.578;2022-09-09T11:46:57;2.67;;;0.73;;
22040;SDS011;11184;52.444;13.578;2022-09-09T11:49:41;4.80;;;1.40;;
22040;SDS011;11184;52.444;13.578;2022-09-09T11:52:37;1.65;;;0.52;;
22040;SDS011;11184;52.444;13.578;2022-09-09T11:55:26;3.63;;;0.73;;
22040;SDS011;11184;52.444;13.578;2022-09-09T12:00:57;1.33;;;0.52;;
22040;SDS011;11184;52.444;13.578;2022-09-09T12:03:45;2.60;;;0.50;;
22040;SDS011;11184;52.444;13.578;2022-09-09T12:06:31;7.68;;;1.23;;
22040;SDS011;11184;52.444;13.578;2022-09-09T12:09:18;3.25;;;0.57;;
22040;SDS011;11184;52.444;13.578;2022-09-09T12:12:05;1.70;;;0.50;;
22040;SDS011;11184;52.444;13.578;2022-09-09T12:14:58;0.88;;;0.40;;
22040;SDS011;11184;52.444;13.578;2022-09-09T12:17:47;1.77;;;0.40;;
22040;SDS011;11184;52.444;13.578;2022-09-09T12:20:34;1.58;;;0.50;;
22040;SDS011;11184;52.444;13.578;2022-09-09T12:26:07;5.30;;;0.73;;
22040;SDS011;11184;52.444;13.578;2022-09-09T12:34:42;1.60;;;0.60;;
22040;SDS011;11184;52.444;13.578;2022-09-09T12:43:17;2.63;;;1.00;;
22040;SDS011;11184;52.444;13.578;2022-09-09T12:46:07;1.27;;;0.50;;
22040;SDS011;11184;52.444;13.578;2022-09-09T12:48:53;1.65;;;0.35;;
22040;SDS011;11184;52.444;13.578;2022-09-09T12:51:38;2.22;;;0.60;;
22040;SDS011;11184;52.444;13.578;2022-09-09T12:54:23;1.35;;;0.65;;
22040;SDS011;11184;52.444;13.578;2022-09-09T12:57:09;0.57;;;0.32;;
22040;SDS011;11184;52.444;13.578;2022-09-09T13:00:03;1.80;;;0.55;;
22040;SDS011;11184;52.444;13.578;2022-09-09T13:05:35;4.65;;;0.80;;
22040;SDS011;11184;52.444;13.578;2022-09-09T13:08:20;1.17;;;0.40;;
22040;SDS011;11184;52.444;13.578;2022-09-09T13:11:10;1.60;;;0.60;;
22040;SDS011;11184;52.444;13.578;2022-09-09T13:13:56;3.00;;;2.30;;
22040;SDS011;11184;52.444;13.578;2022-09-09T13:16:41;4.10;;;1.15;;
22040;SDS011;11184;52.444;13.578;2022-09-09T13:19:27;1.52;;;0.50;;
22040;SDS011;11184;52.444;13.578;2022-09-09T13:22:29;1.95;;;0.70;;
22040;SDS011;11184;52.444;13.578;2022-09-09T13:25:18;1.33;;;0.60;;
22040;SDS011;11184;52.444;13.578;2022-09-09T13:28:04;0.82;;;0.40;;
22040;SDS011;11184;52.444;13.578;2022-09-09T13:30:59;2.15;;;0.75;;
22040;SDS011;11184;52.444;13.578;2022-09-09T13:33:44;0.95;;;0.60;;
22040;SDS011;11184;52.444;13.578;2022-09-09T13:36:29;2.83;;;1.08;;
22040;SDS011;11184;52.444;13.578;2022-09-09T13:39:15;3.35;;;0.90;;
22040;SDS011;11184;52.444;13.578;2022-09-09T13:42:02;1.80;;;0.70;;
22040;SDS011;11184;52.444;13.578;2022-09-09T13:44:47;2.72;;;0.60;;
22040;SDS011;11184;52.444;13.578;2022-09-09T13:47:32;1.70;;;0.45;;
22040;SDS011;11184;52.444;13.578;2022-09-09T13:53:03;5.85;;;0.70;;
22040;SDS011;11184;52.444;13.578;2022-09-09T13:55:47;2.35;;;0.65;;
22040;SDS011;11184;52.444;13.578;2022-09-09T13:58:32;2.88;;;0.70;;
22040;SDS011;11184;52.444;13.578;2022-09-09T14:01:17;3.15;;;0.85;;
22040;SDS011;11184;52.444;13.578;2022-09-09T14:04:01;2.95;;;0.60;;
22040;SDS011;11184;52.444;13.578;2022-09-09T14:06:46;4.05;;;0.70;;
22040;SDS011;11184;52.444;13.578;2022-09-09T14:09:31;2.95;;;0.70;;
22040;SDS011;11184;52.444;13.578;2022-09-09T14:12:16;3.08;;;0.73;;
22040;SDS011;11184;52.444;13.578;2022-09-09T14:15:05;2.22;;;0.60;;
22040;SDS011;11184;52.444;13.578;2022-09-09T14:17:51;3.97;;;1.40;;
22040;SDS011;11184;52.444;13.578;2022-09-09T14:20:35;5.03;;;0.68;;
22040;SDS011;11184;52.444;13.578;2022-09-09T14:23:20;4.95;;;1.05;;
22040;SDS011;11184;52.444;13.578;2022-09-09T14:26:05;1.67;;;0.60;;
22040;SDS011;11184;52.444;13.578;2022-09-09T14:28:50;3.30;;;0.63;;
22040;SDS011;11184;52.444;13.578;2022-09-09T14:31:35;2.70;;;0.52;;
22040;SDS011;11184;52.444;13.578;2022-09-09T14:34:20;1.85;;;0.50;;
22040;SDS011;11184;52.444;13.578;2022-09-09T14:37:04;1.63;;;0.50;;
22040;SDS011;11184;52.444;13.578;2022-09-09T14:39:49;8.75;;;0.70;;
22040;SDS011;11184;52.444;13.578;2022-09-09T14:42:34;5.50;;;3.55;;
22040;SDS011;11184;52.444;13.578;2022-09-09T14:45:19;3.33;;;1.08;;
22040;SDS011;11184;52.444;13.578;2022-09-09T14:48:04;1.60;;;0.52;;
22040;SDS011;11184;52.444;13.578;2022-09-09T14:50:49;2.58;;;0.73;;
22040;SDS011;11184;52.444;13.578;2022-09-09T14:53:33;1.60;;;0.80;;
22040;SDS011;11184;52.444;13.578;2022-09-09T14:56:19;4.40;;;1.35;;
22040;SDS011;11184;52.444;13.578;2022-09-09T14:59:08;2.00;;;0.80;;
22040;SDS011;11184;52.444;13.578;2022-09-09T15:01:53;3.60;;;0.65;;
22040;SDS011;11184;52.444;13.578;2022-09-09T15:04:37;1.52;;;0.50;;
22040;SDS011;11184;52.444;13.578;2022-09-09T15:07:23;3.30;;;0.75;;
22040;SDS011;11184;52.444;13.578;2022-09-09T15:10:07;3.47;;;1.00;;
22040;SDS011;11184;52.444;13.578;2022-09-09T15:12:52;4.35;;;0.70;;
22040;SDS011;11184;52.444;13.578;2022-09-09T15:15:37;2.28;;;0.65;;
22040;SDS011;11184;52.444;13.578;2022-09-09T15:18:22;2.00;;;0.65;;
22040;SDS011;11184;52.444;13.578;2022-09-09T15:21:06;6.75;;;0.85;;
22040;SDS011;11184;52.444;13.578;2022-09-09T15:23:51;2.78;;;0.77;;
22040;SDS011;11184;52.444;13.578;2022-09-09T15:26:36;3.42;;;1.20;;
22040;SDS011;11184;52.444;13.578;2022-09-09T15:29:24;2.08;;;0.80;;
22040;SDS011;11184;52.444;13.578;2022-09-09T15:32:09;4.05;;;0.57;;
22040;SDS011;11184;52.444;13.578;2022-09-09T15:34:54;5.47;;;0.80;;
22040;SDS011;11184;52.444;13.578;2022-09-09T15:37:38;2.53;;;0.52;;
22040;SDS011;11184;52.444;13.578;2022-09-09T15:40:23;4.35;;;0.98;;
22040;SDS011;11184;52.444;13.578;2022-09-09T15:43:08;1.70;;;0.75;;
22040;SDS011;11184;52.444;13.578;2022-09-09T15:45:54;2.50;;;0.80;;
22040;SDS011;11184;52.444;13.578;2022-09-09T15:48:41;4.00;;;0.93;;
22040;SDS011;11184;52.444;13.578;2022-09-09T15:51:27;2.58;;;1.08;;
22040;SDS011;11184;52.444;13.578;2022-09-09T15:54:13;3.45;;;1.00;;
22040;SDS011;11184;52.444;13.578;2022-09-09T15:56:58;2.13;;;0.80;;
22040;SDS011;11184;52.444;13.578;2022-09-09T15:59:43;1.98;;;0.90;;
22040;SDS011;11184;52.444;13.578;2022-09-09T16:02:28;7.13;;;1.15;;
22040;SDS011;11184;52.444;13.578;2022-09-09T16:05:14;3.85;;;0.80;;
22040;SDS011;11184;52.444;13.578;2022-09-09T16:07:58;3.42;;;0.82;;
22040;SDS011;11184;52.444;13.578;2022-09-09T16:10:43;2.05;;;0.95;;
22040;SDS011;11184;52.444;13.578;2022-09-09T16:13:28;3.20;;;1.17;;
22040;SDS011;11184;52.444;13.578;2022-09-09T16:16:13;3.05;;;0.80;;
22040;SDS011;11184;52.444;13.578;2022-09-09T16:18:59;1.50;;;0.90;;
22040;SDS011;11184;52.444;13.578;2022-09-09T16:21:45;3.08;;;1.55;;
22040;SDS011;11184;52.444;13.578;2022-09-09T16:24:31;4.57;;;1.17;;
22040;SDS011;11184;52.444;13.578;2022-09-09T16:27:15;2.35;;;1.17;;
22040;SDS011;11184;52.444;13.578;2022-09-09T16:30:00;1.27;;;0.63;;
22040;SDS011;11184;52.444;13.578;2022-09-09T16:32:45;2.88;;;1.00;;
22040;SDS011;11184;52.444;13.578;2022-09-09T16:35:29;4.63;;;1.25;;
22040;SDS011;11184;52.444;13.578;2022-09-09T16:38:14;1.98;;;0.85;;
22040;SDS011;11184;52.444;13.578;2022-09-09T16:41:00;4.70;;;2.25;;
22040;SDS011;11184;52.444;13.578;2022-09-09T16:43:44;4.82;;;1.50;;
22040;SDS011;11184;52.444;13.578;2022-09-09T16:46:30;2.20;;;1.05;;
22040;SDS011;11184;52.444;13.578;2022-09-09T16:49:15;4.32;;;1.02;;
22040;SDS011;11184;52.444;13.578;2022-09-09T16:51:59;1.67;;;0.70;;
22040;SDS011;11184;52.444;13.578;2022-09-09T16:54:44;2.03;;;1.30;;
22040;SDS011;11184;52.444;13.578;2022-09-09T16:57:28;3.78;;;0.98;;
22040;SDS011;11184;52.444;13.578;2022-09-09T17:00:14;2.90;;;0.90;;
22040;SDS011;11184;52.444;13.578;2022-09-09T17:02:59;2.67;;;0.98;;
22040;SDS011;11184;52.444;13.578;2022-09-09T17:05:44;2.67;;;0.65;;
22040;SDS011;11184;52.444;13.578;2022-09-09T17:08:29;2.20;;;1.15;;
22040;SDS011;11184;52.444;13.578;2022-09-09T17:11:15;2.08;;;1.10;;
22040;SDS011;11184;52.444;13.578;2022-09-09T17:14:01;2.05;;;1.05;;
22040;SDS011;11184;52.444;13.578;2022-09-09T17:16:46;1.80;;;0.90;;
22040;SDS011;11184;52.444;13.578;2022-09-09T17:19:31;2.55;;;1.20;;
22040;SDS011;11184;52.444;13.578;2022-09-09T17:22:15;1.67;;;1.25;;
22040;SDS011;11184;52.444;13.578;2022-09-09T17:25:00;3.75;;;1.55;;
22040;SDS011;11184;52.444;13.578;2022-09-09T17:27:45;3.20;;;1.48;;
22040;SDS011;11184;52.444;13.578;2022-09-09T17:30:33;2.08;;;1.08;;
22040;SDS011;11184;52.444;13.578;2022-09-09T17:33:18;5.00;;;1.33;;
22040;SDS011;11184;52.444;13.578;2022-09-09T17:36:14;5.82;;;2.05;;
22040;SDS011;11184;52.444;13.578;2022-09-09T17:38:59;1.25;;;1.00;;
22040;SDS011;11184;52.444;13.578;2022-09-09T17:41:44;3.95;;;1.55;;
22040;SDS011;11184;52.444;13.578;2022-09-09T17:44:29;2.13;;;0.73;;
22040;SDS011;11184;52.444;13.578;2022-09-09T17:47:15;2.13;;;1.20;;
22040;SDS011;11184;52.444;13.578;2022-09-09T17:50:00;6.60;;;1.00;;
22040;SDS011;11184;52.444;13.578;2022-09-09T17:52:44;2.78;;;1.15;;
22040;SDS011;11184;52.444;13.578;2022-09-09T17:55:29;5.57;;;1.35;;
22040;SDS011;11184;52.444;13.578;2022-09-09T17:58:13;4.28;;;1.40;;
22040;SDS011;11184;52.444;13.578;2022-09-09T18:01:03;4.53;;;1.80;;
22040;SDS011;11184;52.444;13.578;2022-09-09T18:03:49;1.77;;;1.20;;
22040;SDS011;11184;52.444;13.578;2022-09-09T18:06:34;2.25;;;1.50;;